Time;durP1;ratioP1;P1;durP2;ratioP2;P2;SDS_P1;SDS_P2;PMS_P1;PMS_P2;Temp;Humidity;BMP_temperature;BMP_pressure;BME280_temperature;BME280_humidity;BME280_pressure;Samples;Min_cycle;Max_cycle;Signal;HPM_P1;HPM_P2
2023/01/29 00:00:12;;;;;;;25.20;14.00;;;;;;;-3.46;80.84;100040.15;105933;1254;71978;-75
2023/01/29 00:02:41;;;;;;;28.90;14.00;;;;;;;-3.50;81.14;100045.39;105901;1254;60876;-73
2023/01/29 00:05:09;;;;;;;22.90;14.80;;;;;;;-3.55;81.30;100047.84;105881;1256;61264;-75
2023/01/29 00:07:55;;;;;;;23.00;13.30;;;;;;;-3.60;81.39;100045.16;105909;1253;72899;-75
2023/01/29 00:10:24;;;;;;;24.60;13.20;;;;;;;-3.64;81.50;100048.63;105852;1258;68635;-74
2023/01/29 00:12:52;;;;;;;24.70;13.50;;;;;;;-3.69;81.47;100044.35;105840;1254;72914;-75
2023/01/29 00:15:20;;;;;;;25.10;13.70;;;;;;;-3.65;81.51;100041.74;105881;1254;60539;-75
2023/01/29 00:17:49;;;;;;;21.50;13.30;;;;;;;-3.58;81.28;100042.81;105897;1254;60443;-77
2023/01/29 00:20:17;;;;;;;24.60;14.30;;;;;;;-3.63;81.57;100040.41;105995;1257;73478;-76
2023/01/29 00:22:46;;;;;;;23.10;12.50;;;;;;;-3.67;81.80;100036.79;105864;1256;71804;-76
2023/01/29 00:25:14;;;;;;;26.10;14.00;;;;;;;-3.69;81.95;100037.61;105563;1256;72235;-77
2023/01/29 00:27:43;;;;;;;21.40;13.00;;;;;;;-3.72;81.98;100038.81;106020;1256;60378;-80
2023/01/29 00:30:12;;;;;;;22.50;13.00;;;;;;;-3.77;81.96;100041.57;105841;1259;60546;-76
2023/01/29 00:32:40;;;;;;;23.60;13.10;;;;;;;-3.82;82.04;100044.55;105728;1254;74336;-77
2023/01/29 00:35:08;;;;;;;26.20;13.70;;;;;;;-3.77;82.00;100045.23;105798;1256;68156;-74
2023/01/29 00:37:37;;;;;;;22.30;12.80;;;;;;;-3.70;81.95;100047.50;105784;1254;73122;-75
2023/01/29 00:40:05;;;;;;;20.80;12.70;;;;;;;-3.74;81.96;100042.69;105779;1257;60563;-77
2023/01/29 00:45:20;;;;;;;26.30;15.10;;;;;;;-3.80;82.33;100044.65;105794;1256;73356;-80
2023/01/29 00:47:49;;;;;;;26.60;14.40;;;;;;;-3.84;82.42;100045.70;105658;1254;71104;-78
2023/01/29 00:50:17;;;;;;;24.40;14.40;;;;;;;-3.87;82.63;100049.16;106206;1256;72267;-75
2023/01/29 00:52:48;;;;;;;23.20;13.20;;;;;;;-3.91;82.38;100049.00;106899;1253;60422;-75
2023/01/29 00:55:16;;;;;;;22.90;13.20;;;;;;;-3.87;82.35;100048.63;106220;1259;60166;-75
2023/01/29 00:57:46;;;;;;;21.20;12.70;;;;;;;-3.78;82.12;100048.52;107122;1254;74291;-78
2023/01/29 01:00:16;;;;;;;23.60;13.30;;;;;;;-3.78;82.16;100043.88;106767;1254;68813;-79
2023/01/29 01:05:32;;;;;;;23.60;14.00;;;;;;;-3.89;82.28;100043.68;106570;1254;60559;-83
2023/01/29 01:08:01;;;;;;;21.40;12.90;;;;;;;-3.95;82.28;100047.21;106155;1254;60443;-78
2023/01/29 01:10:31;;;;;;;25.20;14.90;;;;;;;-3.99;82.23;100048.80;105908;1254;74516;-76
2023/01/29 01:13:04;;;;;;;25.80;14.90;;;;;;;-4.06;82.11;100049.83;106022;1254;71445;-75
2023/01/29 01:15:37;;;;;;;25.60;14.30;;;;;;;-4.13;82.00;100052.72;105845;1257;71539;-76
2023/01/29 01:18:05;;;;;;;20.90;12.90;;;;;;;-4.08;81.92;100053.50;106561;1253;63157;-72
2023/01/29 01:20:34;;;;;;;25.00;14.00;;;;;;;-4.01;81.73;100053.92;105817;1254;60404;-73
2023/01/29 01:23:02;;;;;;;23.40;13.10;;;;;;;-4.05;81.79;100054.95;105920;1254;72727;-74
2023/01/29 01:25:31;;;;;;;23.50;13.60;;;;;;;-4.10;81.83;100057.59;105782;1253;69438;-76
2023/01/29 01:27:59;;;;;;;24.50;15.00;;;;;;;-4.17;81.83;100053.21;105835;1253;72911;-74
2023/01/29 01:30:31;;;;;;;24.50;14.20;;;;;;;-4.25;81.94;100056.35;105847;1254;60983;-75
2023/01/29 01:33:00;;;;;;;22.30;13.90;;;;;;;-4.31;82.10;100052.44;105805;1253;60804;-75
2023/01/29 01:35:29;;;;;;;26.60;14.90;;;;;;;-4.37;82.26;100056.66;105680;1254;73508;-75
2023/01/29 01:38:00;;;;;;;25.20;14.90;;;;;;;-4.32;82.21;100055.10;105697;1261;70849;-75
2023/01/29 01:40:28;;;;;;;24.50;14.20;;;;;;;-4.24;82.01;100054.73;105739;1254;72993;-76
2023/01/29 01:42:57;;;;;;;24.20;14.30;;;;;;;-4.28;82.12;100051.78;105882;1254;60556;-81
2023/01/29 01:45:31;;;;;;;30.50;16.30;;;;;;;-4.30;82.60;100049.65;105920;1257;60438;-80
2023/01/29 01:48:15;;;;;;;26.90;15.60;;;;;;;-4.30;83.01;100052.27;105848;1259;73540;-81
2023/01/29 01:50:43;;;;;;;;;;;;;;;-4.33;83.00;100055.84;106001;1254;71533;-79
2023/01/29 01:53:13;;;;;;;30.10;17.70;;;;;;;-4.37;83.24;100059.27;106307;1254;70787;-77
2023/01/29 01:55:50;;;;;;;34.90;20.20;;;;;;;-4.43;83.25;100059.69;108068;1253;60460;-82
2023/01/29 01:58:22;;;;;;;27.60;18.10;;;;;;;-4.33;83.28;100059.64;108975;1254;59053;-84
2023/01/29 02:00:51;;;;;;;28.30;16.80;;;;;;;-4.21;83.11;100053.02;105912;1253;73235;-83
2023/01/29 02:09:34;;;;;;;24.80;14.90;;;;;;;-4.27;83.69;100060.73;105802;1260;60861;-86
2023/01/29 02:12:04;;;;;;;26.50;15.50;;;;;;;-4.28;83.95;100063.02;106003;1254;61244;-82
2023/01/29 02:14:37;;;;;;;25.80;15.00;;;;;;;-4.31;83.98;100062.99;106549;1256;74750;-80
2023/01/29 02:17:06;;;;;;;;;;;;;;;-4.23;83.91;100067.65;106002;1254;70315;-79
2023/01/29 02:19:39;;;;;;;26.70;14.70;;;;;;;-4.10;83.64;100060.73;106659;1254;71761;-79
2023/01/29 02:22:27;;;;;;;25.00;14.70;;;;;;;-4.15;83.65;100060.55;106900;1254;60566;-75
2023/01/29 02:24:59;;;;;;;24.40;14.70;;;;;;;-4.17;83.89;100060.45;106315;1254;61188;-78
2023/01/29 02:27:50;;;;;;;24.70;14.80;;;;;;;-4.18;83.91;100060.50;106008;1253;73850;-77
2023/01/29 02:30:59;;;;;;;29.30;15.40;;;;;;;-4.26;83.79;100063.45;105727;1254;71819;-79
2023/01/29 02:33:49;;;;;;;28.60;15.70;;;;;;;-4.33;84.00;100068.98;105707;1254;73483;-77
2023/01/29 02:36:29;;;;;;;24.90;14.90;;;;;;;-4.37;84.28;100069.66;105929;1254;62397;-79
2023/01/29 02:39:14;;;;;;;24.80;13.80;;;;;;;-4.24;84.28;100070.50;105742;1262;61419;-75
2023/01/29 02:42:21;;;;;;;23.50;14.00;;;;;;;-4.08;84.22;100065.84;105845;1259;75037;-76
2023/01/29 02:45:02;;;;;;;24.60;14.20;;;;;;;-4.08;84.28;100063.72;105859;1254;71386;-76
2023/01/29 02:47:52;;;;;;;24.10;14.00;;;;;;;-4.10;84.37;100067.45;106169;1258;70915;-79
2023/01/29 02:50:32;;;;;;;26.90;15.20;;;;;;;-4.15;84.48;100066.27;107393;1254;60420;-77
2023/01/29 02:53:08;;;;;;;24.70;15.10;;;;;;;-4.18;84.71;100066.05;107008;1254;61154;-74
2023/01/29 02:55:38;;;;;;;25.00;13.90;;;;;;;-4.17;84.81;100067.05;106966;1253;73985;-76
2023/01/29 02:58:19;;;;;;;28.50;15.50;;;;;;;-4.02;84.60;100060.70;106071;1254;68337;-80
2023/01/29 03:00:47;;;;;;;30.50;15.30;;;;;;;-3.85;84.28;100062.54;105805;1254;73682;-77
2023/01/29 03:03:21;;;;;;;27.00;13.40;;;;;;;-3.86;84.08;100059.63;105945;1254;60552;-77
2023/01/29 03:05:57;;;;;;;30.20;15.90;;;;;;;-3.91;84.18;100061.45;105803;1254;61278;-78
2023/01/29 03:08:42;;;;;;;25.40;15.00;;;;;;;-3.93;84.28;100061.17;105757;1259;74299;-77
2023/01/29 03:11:14;;;;;;;24.10;14.40;;;;;;;-3.99;84.14;100060.55;105806;1254;71419;-78
2023/01/29 03:14:01;;;;;;;29.30;15.80;;;;;;;-4.01;84.53;100058.23;105898;1254;73634;-77
2023/01/29 03:16:33;;;;;;;32.20;15.60;;;;;;;-4.00;84.57;100052.83;105828;1254;63151;-78
2023/01/29 03:19:41;;;;;;;24.80;13.30;;;;;;;-3.87;84.19;100054.67;105870;1259;60420;-78
2023/01/29 03:22:19;;;;;;;23.40;12.90;;;;;;;-3.76;83.77;100057.64;105836;1254;71472;-79
2023/01/29 03:34:15;;;;;;;27.20;15.00;;;;;;;-3.89;84.35;100051.66;105806;1259;61302;-79
2023/01/29 03:37:06;;;;;;;26.10;14.40;;;;;;;-3.90;84.52;100052.73;107337;1253;72232;-80
2023/01/29 03:39:35;;;;;;;24.20;13.40;;;;;;;-3.77;84.07;100052.13;109247;1256;69509;-80
2023/01/29 03:42:20;;;;;;;26.20;14.90;;;;;;;-3.68;83.97;100054.37;109286;1255;71565;-80
2023/01/29 03:45:07;;;;;;;23.50;13.90;;;;;;;-3.69;83.96;100054.39;109227;1255;59540;-80
2023/01/29 03:47:59;;;;;;;26.30;14.80;;;;;;;-3.67;84.44;100052.90;109424;1256;59842;-80
2023/01/29 03:50:49;;;;;;;25.20;15.40;;;;;;;-3.65;84.36;100049.00;109106;1258;71898;-78
2023/01/29 03:53:53;;;;;;;27.10;14.50;;;;;;;-3.63;84.19;100050.29;109258;1256;68487;-78
2023/01/29 03:56:25;;;;;;;29.00;14.70;;;;;;;-3.60;84.08;100052.23;107465;1255;70941;-75
2023/01/29 03:59:03;;;;;;;27.60;14.80;;;;;;;-3.44;83.78;100055.98;107275;1256;60271;-76
2023/01/29 04:01:47;;;;;;;27.70;14.00;;;;;;;-3.34;83.62;100062.81;107085;1253;61078;-77
2023/01/29 04:04:18;;;;;;;24.60;14.20;;;;;;;-3.32;83.73;100059.95;107072;1259;74815;-77
2023/01/29 04:06:48;;;;;;;24.00;14.30;;;;;;;-3.31;83.98;100060.75;106964;1260;69377;-75
2023/01/29 04:09:29;;;;;;;26.60;15.40;;;;;;;-3.27;83.90;100057.83;107416;1253;71379;-77
2023/01/29 04:12:04;;;;;;;25.80;14.80;;;;;;;-3.27;83.82;100055.73;108085;1255;59266;-76
2023/01/29 04:14:32;;;;;;;32.40;15.10;;;;;;;-3.29;83.53;100053.24;107196;1256;60969;-77
2023/01/29 04:17:23;;;;;;;28.60;15.50;;;;;;;-3.33;83.45;100054.66;108334;1254;73754;-77
2023/01/29 04:20:00;;;;;;;25.50;15.00;;;;;;;-3.25;83.15;100057.69;107911;1258;71276;-79
2023/01/29 04:22:32;;;;;;;25.20;14.60;;;;;;;-3.16;83.18;100055.73;108869;1256;72964;-78
2023/01/29 04:25:14;;;;;;;27.10;14.40;;;;;;;-3.13;83.40;100051.98;109294;1255;59577;-78
2023/01/29 04:28:08;;;;;;;26.70;15.70;;;;;;;-3.09;83.71;100055.92;109326;1253;59357;-83
2023/01/29 04:30:46;;;;;;;25.80;15.90;;;;;;;-3.02;83.63;100057.82;109328;1257;73590;-81
2023/01/29 04:33:48;;;;;;;25.30;16.00;;;;;;;-2.97;83.66;100051.51;109334;1253;70014;-79
2023/01/29 04:37:01;;;;;;;27.60;16.60;;;;;;;-2.90;83.17;100056.58;109313;1253;70639;-79
2023/01/29 04:39:33;;;;;;;29.90;17.50;;;;;;;-2.73;82.70;100053.61;109184;1253;60866;-80
2023/01/29 04:42:13;;;;;;;30.80;17.90;;;;;;;-2.69;82.29;100056.05;109437;1253;59210;-79
2023/01/29 04:44:43;;;;;;;27.60;15.70;;;;;;;-2.74;82.29;100053.52;109396;1253;71840;-83
2023/01/29 04:47:17;;;;;;;27.90;16.80;;;;;;;-2.77;82.34;100056.61;109453;1253;70271;-81
2023/01/29 04:49:52;;;;;;;34.00;19.40;;;;;;;-2.84;82.07;100059.74;109387;1253;70268;-82
2023/01/29 04:52:38;;;;;;;29.40;17.70;;;;;;;-2.94;82.09;100058.50;109164;1253;59259;-79
2023/01/29 04:55:14;;;;;;;26.70;16.60;;;;;;;-3.03;82.09;100060.11;105946;1254;60540;-79
2023/01/29 04:58:04;;;;;;;29.80;15.50;;;;;;;-3.08;82.31;100061.43;105772;1253;72039;-80
2023/01/29 05:00:38;;;;;;;25.90;15.20;;;;;;;-3.01;82.07;100061.59;105880;1253;70033;-77
2023/01/29 05:03:08;;;;;;;24.50;15.50;;;;;;;-2.95;82.25;100059.59;105830;1253;73604;-80
2023/01/29 05:05:38;;;;;;;23.80;15.10;;;;;;;-2.97;82.39;100059.13;106099;1254;60777;-78
2023/01/29 05:08:07;;;;;;;23.80;14.40;;;;;;;-3.01;82.44;100059.69;105852;1254;60978;-77
2023/01/29 05:10:35;;;;;;;27.50;15.80;;;;;;;-3.03;82.52;100062.23;106134;1259;74743;-77
2023/01/29 05:13:05;;;;;;;29.60;16.10;;;;;;;-3.07;82.46;100063.97;106069;1254;69200;-79
2023/01/29 05:15:56;;;;;;;30.10;16.50;;;;;;;-3.13;82.46;100061.65;106080;1255;71931;-79
2023/01/29 05:18:25;;;;;;;23.50;14.90;;;;;;;-3.13;82.78;100065.29;105995;1260;62577;-79
2023/01/29 05:20:53;;;;;;;29.30;15.50;;;;;;;-3.02;82.54;100068.56;105931;1254;60466;-79
2023/01/29 05:23:21;;;;;;;28.10;15.40;;;;;;;-2.91;82.16;100068.25;105856;1259;74562;-81
2023/01/29 05:25:50;;;;;;;27.00;15.80;;;;;;;-2.94;82.08;100066.81;105963;1260;69686;-80
2023/01/29 05:28:20;;;;;;;29.00;16.80;;;;;;;-2.98;82.38;100067.34;105940;1255;71787;-81
2023/01/29 05:30:50;;;;;;;26.70;17.10;;;;;;;-2.98;82.55;100068.71;105862;1257;60424;-77
2023/01/29 05:33:19;;;;;;;28.00;18.10;;;;;;;-2.98;82.45;100071.84;105966;1256;60351;-81
2023/01/29 05:35:49;;;;;;;27.40;17.10;;;;;;;-3.04;82.13;100069.91;106751;1259;73442;-84
2023/01/29 05:38:17;;;;;;;30.30;17.10;;;;;;;-3.13;82.11;100064.40;106863;1256;70264;-84
2023/01/29 05:40:46;;;;;;;28.20;16.10;;;;;;;-3.18;82.36;100062.39;106960;1257;73905;-81
2023/01/29 05:43:23;;;;;;;27.90;15.30;;;;;;;-3.11;82.13;100063.46;106855;1254;60364;-82
2023/01/29 05:45:56;;;;;;;25.60;15.20;;;;;;;-3.02;81.71;100069.98;107521;1254;61340;-80
2023/01/29 05:48:27;;;;;;;25.00;15.40;;;;;;;-3.12;81.64;100074.06;107531;1258;74790;-79
2023/01/29 05:51:00;;;;;;;33.90;19.10;;;;;;;-3.24;81.98;100071.86;106511;1254;71226;-79
2023/01/29 05:53:29;;;;;;;24.90;15.20;;;;;;;-3.31;82.33;100073.58;106022;1259;72616;-78
2023/01/29 05:55:59;;;;;;;32.80;18.10;;;;;;;-3.41;82.37;100073.15;106047;1259;60312;-79
2023/01/29 05:58:34;;;;;;;32.30;17.50;;;;;;;-3.52;82.51;100077.70;106354;1253;60439;-77
2023/01/29 06:01:16;;;;;;;28.30;16.40;;;;;;;-3.63;82.65;100071.27;106013;1254;74713;-77
2023/01/29 06:03:45;;;;;;;31.10;16.80;;;;;;;-3.69;82.90;100074.13;106284;1254;71566;-77
2023/01/29 06:06:14;;;;;;;25.80;16.80;;;;;;;-3.65;82.73;100064.78;106311;1254;72915;-76
2023/01/29 06:08:42;;;;;;;25.80;16.50;;;;;;;-3.60;82.89;100072.67;105749;1259;60502;-77
2023/01/29 06:11:11;;;;;;;29.00;16.00;;;;;;;-3.64;83.17;100069.88;105741;1254;60495;-77
2023/01/29 06:13:40;;;;;;;30.70;16.90;;;;;;;-3.68;83.31;100071.48;106070;1257;75119;-73
2023/01/29 06:16:08;;;;;;;33.70;18.50;;;;;;;-3.77;83.51;100070.14;105911;1257;72764;-78
2023/01/29 06:18:37;;;;;;;28.40;16.00;;;;;;;-3.83;83.92;100071.95;105924;1259;73860;-75
2023/01/29 06:21:06;;;;;;;30.10;17.80;;;;;;;-3.85;84.06;100072.38;105882;1257;60533;-80
2023/01/29 06:23:36;;;;;;;27.90;16.30;;;;;;;-3.74;83.91;100074.69;105951;1254;60534;-73
2023/01/29 06:26:12;;;;;;;25.60;15.80;;;;;;;-3.65;83.71;100068.90;105745;1259;74800;-74
2023/01/29 06:28:40;;;;;;;24.80;14.90;;;;;;;-3.67;84.11;100072.27;105670;1260;70554;-77
2023/01/29 06:31:08;;;;;;;30.90;16.60;;;;;;;-3.71;84.20;100067.61;105876;1254;72156;-77
2023/01/29 06:33:56;;;;;;;30.30;17.60;;;;;;;-3.79;84.57;100072.81;105853;1254;60545;-76
2023/01/29 06:36:25;;;;;;;30.60;17.60;;;;;;;-3.78;85.07;100073.83;105762;1256;60413;-75
2023/01/29 06:38:57;;;;;;;27.60;15.30;;;;;;;-3.75;85.03;100074.92;105783;1253;74853;-75
2023/01/29 06:41:26;;;;;;;27.10;15.90;;;;;;;-3.60;84.83;100076.11;105739;1255;71426;-79
2023/01/29 06:43:54;;;;;;;27.70;16.20;;;;;;;-3.43;84.63;100076.92;105611;1259;73483;-75
2023/01/29 06:46:22;;;;;;;29.50;16.70;;;;;;;-3.38;84.60;100074.27;105969;1256;61136;-75
2023/01/29 06:48:50;;;;;;;30.30;16.90;;;;;;;-3.37;84.76;100076.77;105946;1257;61555;-76
2023/01/29 06:51:21;;;;;;;31.30;18.50;;;;;;;-3.38;84.66;100078.23;105682;1262;72909;-74
2023/01/29 06:53:50;;;;;;;29.50;17.60;;;;;;;-3.40;84.85;100080.05;105978;1257;68404;-69
2023/01/29 06:56:18;;;;;;;30.00;16.60;;;;;;;-3.36;84.97;100077.62;105853;1254;71692;-72
2023/01/29 06:58:47;;;;;;;32.50;17.70;;;;;;;-3.24;84.67;100077.08;105820;1256;60431;-73
2023/01/29 07:01:15;;;;;;;32.30;17.30;;;;;;;-3.11;84.45;100081.66;105910;1257;60402;-75
2023/01/29 07:04:02;;;;;;;30.90;17.50;;;;;;;-3.11;84.69;100078.38;105795;1259;74089;-73
2023/01/29 07:06:30;;;;;;;33.70;17.30;;;;;;;-3.13;84.64;100074.98;105855;1254;71676;-73
2023/01/29 07:08:59;;;;;;;31.00;17.80;;;;;;;-3.15;84.87;100071.98;105715;1260;73848;-72
2023/01/29 07:11:33;;;;;;;34.60;20.00;;;;;;;-3.12;85.16;100069.26;105830;1254;60448;-74
2023/01/29 07:14:02;;;;;;;26.80;15.90;;;;;;;-3.10;85.13;100066.91;105650;1263;60429;-73
2023/01/29 07:16:31;;;;;;;31.00;18.20;;;;;;;-3.01;85.26;100070.43;105971;1259;74794;-72
2023/01/29 07:18:59;;;;;;;30.90;18.00;;;;;;;-2.80;85.13;100065.60;105831;1259;68927;-74
2023/01/29 07:21:28;;;;;;;28.90;17.50;;;;;;;-2.71;85.04;100070.20;105882;1261;73503;-75
2023/01/29 07:23:56;;;;;;;30.10;16.00;;;;;;;-2.68;84.89;100072.49;105688;1255;60446;-72
2023/01/29 07:26:25;;;;;;;31.60;19.20;;;;;;;-2.69;84.69;100075.64;105721;1260;61021;-75
2023/01/29 07:28:54;;;;;;;31.80;18.90;;;;;;;-2.70;84.95;100076.91;105841;1254;75024;-77
2023/01/29 07:31:26;;;;;;;33.40;17.60;;;;;;;-2.66;85.09;100080.33;105762;1260;70606;-76
2023/01/29 07:33:54;;;;;;;30.90;17.70;;;;;;;-2.59;84.80;100078.80;105952;1256;71384;-73
2023/01/29 07:36:23;;;;;;;31.90;19.20;;;;;;;-2.44;84.44;100075.98;105706;1255;60549;-72
2023/01/29 07:38:51;;;;;;;31.30;18.90;;;;;;;-2.43;84.28;100073.81;105642;1255;306149;-72
2023/01/29 07:43:46;;;;;;;37.50;21.70;;;;;;;-2.45;84.76;100072.89;102453;1292;603526;-73
2023/01/29 07:46:12;;;;;;;37.00;20.30;;;;;;;-2.42;84.90;100075.16;105050;1272;59337;-73
2023/01/29 07:48:43;;;;;;;33.50;19.90;;;;;;;-2.37;84.82;100074.73;104786;1273;60202;-71
2023/01/29 07:51:09;;;;;;;29.70;18.70;;;;;;;-2.34;84.74;100074.08;105017;1273;59302;-74
2023/01/29 07:53:36;;;;;;;32.80;18.20;;;;;;;-2.20;84.55;100072.30;105004;1272;69458;-73
2023/01/29 07:56:03;;;;;;;30.50;18.50;;;;;;;-2.05;84.15;100077.63;104798;1264;194081;-72
2023/01/29 07:58:30;;;;;;;32.50;19.60;;;;;;;-2.01;84.02;100076.90;104979;1270;59345;-73
2023/01/29 08:00:57;;;;;;;31.90;19.40;;;;;;;-2.07;83.82;100080.50;105857;1254;59878;-73
2023/01/29 08:03:24;;;;;;;36.70;20.90;;;;;;;-2.16;83.92;100082.01;105879;1260;71308;-73
2023/01/29 08:05:52;;;;;;;33.10;20.20;;;;;;;-2.20;84.17;100085.85;105768;1254;71573;-72
2023/01/29 08:08:19;;;;;;;38.90;20.40;;;;;;;-2.20;84.52;100084.30;105685;1260;72559;-72
2023/01/29 08:10:46;;;;;;;34.70;20.60;;;;;;;-2.07;84.64;100086.08;105900;1254;60398;-74
2023/01/29 08:13:12;;;;;;;30.50;19.50;;;;;;;-1.89;83.98;100082.35;106011;1257;59930;-74
2023/01/29 08:15:43;;;;;;;35.50;20.80;;;;;;;-1.83;83.82;100082.21;106013;1266;70707;-74
2023/01/29 08:18:10;;;;;;;34.70;21.50;;;;;;;-1.85;83.86;100079.70;105924;1257;69272;-72
2023/01/29 08:20:37;;;;;;;36.70;21.30;;;;;;;-1.82;84.07;100080.04;106085;1255;73457;-71
2023/01/29 08:23:12;;;;;;;38.00;22.90;;;;;;;-1.81;84.13;100075.98;106005;1256;60527;-73
2023/01/29 08:25:39;;;;;;;32.20;21.20;;;;;;;-1.74;84.35;100081.92;105841;1252;61257;-73
2023/01/29 08:28:05;;;;;;;33.10;21.40;;;;;;;-1.70;84.25;100082.91;105703;1252;70975;-74
2023/01/29 08:30:33;;;;;;;35.00;22.20;;;;;;;-1.57;83.87;100085.85;105937;1254;69892;-72
2023/01/29 08:33:00;;;;;;;37.80;22.20;;;;;;;-1.43;83.58;100088.55;105864;1257;71665;-72
2023/01/29 08:35:27;;;;;;;34.20;21.00;;;;;;;-1.42;83.24;100085.73;105965;1255;60031;-74
2023/01/29 08:38:02;;;;;;;36.40;20.70;;;;;;;-1.44;83.62;100087.78;105608;1252;59656;-73
2023/01/29 08:40:33;;;;;;;31.90;20.50;;;;;;;-1.42;83.71;100082.44;105895;1254;74124;-72
2023/01/29 08:43:00;;;;;;;31.20;20.50;;;;;;;-1.41;83.30;100080.84;105758;1254;70458;-73
2023/01/29 08:45:31;;;;;;;33.30;20.30;;;;;;;-1.44;83.07;100079.80;105948;1259;73243;-73
2023/01/29 08:47:58;;;;;;;36.70;20.10;;;;;;;-1.35;83.15;100081.36;106018;1257;61079;-72
2023/01/29 08:50:25;;;;;;;31.30;20.20;;;;;;;-1.21;83.17;100084.08;105868;1256;61511;-75
2023/01/29 08:52:55;;;;;;;34.10;21.50;;;;;;;-1.18;82.97;100089.48;106050;1251;71385;-74
2023/01/29 08:55:22;;;;;;;30.30;19.80;;;;;;;-1.22;82.92;100082.75;105897;1260;71439;-72
2023/01/29 08:57:49;;;;;;;33.40;21.20;;;;;;;-1.25;82.77;100078.40;105741;1260;59663;-72
2023/01/29 09:00:16;;;;;;;35.70;22.80;;;;;;;-1.29;82.85;100074.64;105454;1260;59796;-73
2023/01/29 09:02:43;;;;;;;35.70;21.00;;;;;;;-1.30;83.15;100073.31;105486;1255;60179;-71
2023/01/29 09:05:10;;;;;;;36.90;20.50;;;;;;;-1.19;83.08;100071.81;105929;1256;74232;-71
2023/01/29 09:07:36;;;;;;;36.90;21.90;;;;;;;-1.01;83.00;100073.40;106085;1257;70695;-79
2023/01/29 09:10:04;;;;;;;32.70;22.00;;;;;;;-0.90;83.01;100073.34;105964;1254;72939;-79
2023/01/29 09:12:30;;;;;;;34.40;21.90;;;;;;;-0.84;82.88;100071.73;106046;1254;60058;-75
2023/01/29 09:14:57;;;;;;;34.30;21.30;;;;;;;-0.82;82.62;100068.32;105863;1252;60407;-75
2023/01/29 09:17:24;;;;;;;31.80;19.50;;;;;;;-0.78;82.53;100066.02;105867;1253;74028;-76
2023/01/29 09:19:51;;;;;;;31.70;19.40;;;;;;;-0.79;81.97;100066.08;105851;1260;69711;-76
2023/01/29 09:22:19;;;;;;;29.10;19.40;;;;;;;-0.69;81.93;100060.84;105855;1257;71530;-76
2023/01/29 09:24:46;;;;;;;32.00;19.80;;;;;;;-0.68;81.79;100057.27;106094;1254;59682;-74
2023/01/29 09:27:12;;;;;;;32.00;19.70;;;;;;;-0.69;82.15;100054.70;106059;1255;59637;-75
2023/01/29 09:29:39;;;;;;;31.00;18.50;;;;;;;-0.64;82.25;100054.27;106395;1255;71262;-73
2023/01/29 09:32:06;;;;;;;32.50;19.80;;;;;;;-0.61;82.07;100050.92;106713;1254;71543;-78
2023/01/29 09:34:37;;;;;;;30.20;17.90;;;;;;;-0.57;82.13;100053.16;106784;1258;73871;-75
2023/01/29 09:37:03;;;;;;;29.10;17.30;;;;;;;-0.55;81.68;100045.75;106128;1256;60002;-74
2023/01/29 09:39:30;;;;;;;25.50;17.70;;;;;;;-0.45;81.42;100048.67;106408;1252;59708;-74
2023/01/29 09:42:03;;;;;;;27.10;16.50;;;;;;;-0.38;81.62;100044.41;106286;1257;74093;-75
2023/01/29 09:44:50;;;;;;;28.70;17.90;;;;;;;-0.33;81.54;100040.45;106198;1257;70057;-72
2023/01/29 09:47:17;;;;;;;28.00;18.00;;;;;;;-0.30;81.82;100038.38;106278;1254;73507;-74
2023/01/29 09:49:48;;;;;;;29.90;18.00;;;;;;;-0.22;81.88;100037.02;109115;1253;59707;-76
2023/01/29 09:52:17;;;;;;;29.60;17.80;;;;;;;-0.10;81.94;100033.01;109332;1254;59183;-75
2023/01/29 09:54:54;;;;;;;27.00;16.20;;;;;;;0.02;81.44;100033.29;106805;1256;73900;-76
2023/01/29 09:57:24;;;;;;;27.70;16.40;;;;;;;0.16;80.60;100031.90;106402;1259;69029;-75
2023/01/29 09:59:51;;;;;;;26.70;17.90;;;;;;;0.27;80.24;100027.05;107014;1254;73447;-76
2023/01/29 10:02:52;;;;;;;24.90;16.50;;;;;;;0.24;80.07;100024.48;109012;1254;57694;-76
2023/01/29 10:05:40;;;;;;;24.80;15.90;;;;;;;0.12;79.87;100028.30;109273;1254;59252;-76
2023/01/29 10:08:15;;;;;;;23.00;14.50;;;;;;;0.03;80.15;100024.86;109367;1252;71768;-75
2023/01/29 10:10:47;;;;;;;23.00;16.40;;;;;;;-0.05;80.06;100020.48;109608;1254;69781;-76
2023/01/29 10:13:33;;;;;;;24.30;16.00;;;;;;;-0.11;80.36;100017.05;109558;1253;72437;-74
2023/01/29 10:16:22;;;;;;;20.40;13.30;;;;;;;-0.10;80.57;100011.20;109383;1257;60941;-78
2023/01/29 10:19:15;;;;;;;22.20;13.20;;;;;;;0.09;80.17;100008.16;109353;1253;60699;-76
2023/01/29 10:21:53;;;;;;;20.30;12.90;;;;;;;0.19;79.85;100005.29;109281;1254;73997;-75
2023/01/29 10:24:29;;;;;;;23.50;15.70;;;;;;;0.14;79.56;100005.52;109556;1254;70405;-78
2023/01/29 10:26:56;;;;;;;23.10;15.20;;;;;;;0.04;79.50;99997.86;109440;1251;72694;-77
2023/01/29 10:29:22;;;;;;;22.50;15.00;;;;;;;-0.03;79.89;99994.07;109332;1252;58781;-74
2023/01/29 10:31:55;;;;;;;23.80;15.40;;;;;;;-0.04;79.92;99991.89;109520;1254;58726;-75
2023/01/29 10:34:29;;;;;;;21.90;13.60;;;;;;;-0.05;79.82;99987.39;109312;1254;71805;-75
2023/01/29 10:36:56;;;;;;;24.50;15.60;;;;;;;0.03;79.56;99986.05;106919;1254;69713;-76
2023/01/29 10:39:24;;;;;;;24.30;16.70;;;;;;;0.09;79.63;99982.58;105971;1254;71721;-75
2023/01/29 10:42:05;;;;;;;21.70;14.80;;;;;;;0.09;79.98;99980.99;106010;1254;59564;-72
2023/01/29 10:44:39;;;;;;;23.70;15.40;;;;;;;0.10;79.92;99980.41;105924;1259;59705;-74
2023/01/29 10:47:15;;;;;;;25.50;17.50;;;;;;;0.06;79.93;99978.05;105988;1257;71976;-76
2023/01/29 10:50:15;;;;;;;25.90;17.30;;;;;;;0.06;79.93;99974.21;106076;1254;70956;-73
2023/01/29 10:53:01;;;;;;;23.90;16.80;;;;;;;0.11;80.21;99968.33;106190;1257;71551;-74
2023/01/29 10:55:46;;;;;;;23.40;15.10;;;;;;;0.18;79.91;99964.23;106129;1254;60637;-75
2023/01/29 10:58:15;;;;;;;19.70;13.10;;;;;;;0.35;79.38;99957.05;105996;1254;60332;-73
2023/01/29 11:00:42;;;;;;;23.00;14.60;;;;;;;0.45;79.03;99954.70;106165;1257;72946;-75
2023/01/29 11:03:15;;;;;;;20.80;13.80;;;;;;;0.48;79.23;99950.98;105959;1254;71440;-74
2023/01/29 11:06:12;;;;;;;21.10;14.20;;;;;;;0.55;79.19;99944.11;105926;1257;71930;-74
2023/01/29 11:08:45;;;;;;;23.70;15.00;;;;;;;0.60;78.64;99947.45;106163;1254;59618;-73
2023/01/29 11:11:14;;;;;;;20.40;13.60;;;;;;;0.59;78.34;99946.23;105983;1257;59718;-73
2023/01/29 11:14:06;;;;;;;20.70;14.70;;;;;;;0.57;78.33;99947.77;106139;1256;74302;-72
2023/01/29 11:16:41;;;;;;;22.40;13.70;;;;;;;0.57;78.25;99947.46;106094;1253;71465;-74
2023/01/29 11:19:08;;;;;;;19.80;12.40;;;;;;;0.65;77.85;99945.90;105715;1259;72604;-73
2023/01/29 11:22:00;;;;;;;20.10;13.40;;;;;;;0.68;77.53;99944.33;105906;1257;59723;-73
2023/01/29 11:24:28;;;;;;;20.20;13.30;;;;;;;0.54;77.66;99945.23;105733;1261;59667;-74
2023/01/29 11:26:57;;;;;;;19.20;12.70;;;;;;;0.47;77.85;99948.62;105950;1257;72144;-72
2023/01/29 11:29:38;;;;;;;18.50;12.60;;;;;;;0.40;77.72;99944.05;106029;1254;71336;-74
2023/01/29 11:32:13;;;;;;;17.60;12.30;;;;;;;0.27;77.79;99939.11;105968;1254;71997;-74
2023/01/29 11:35:18;;;;;;;19.90;13.50;;;;;;;0.18;78.05;99938.60;105897;1254;60351;-73
2023/01/29 11:37:46;;;;;;;19.50;12.40;;;;;;;0.22;77.89;99943.42;105947;1257;61532;-74
2023/01/29 11:40:19;;;;;;;23.90;13.40;;;;;;;0.25;77.84;99943.23;105877;1254;76230;-75
2023/01/29 11:42:46;;;;;;;20.20;12.80;;;;;;;0.19;78.45;99942.20;106084;1254;70542;-75
2023/01/29 11:45:26;;;;;;;19.40;13.10;;;;;;;0.18;78.59;99940.31;105825;1254;71993;-76
2023/01/29 11:47:53;;;;;;;20.00;14.00;;;;;;;0.18;78.58;99939.30;105800;1254;59819;-76
2023/01/29 11:50:29;;;;;;;19.80;13.60;;;;;;;0.13;78.53;99938.59;105867;1254;60473;-75
2023/01/29 11:52:55;;;;;;;19.60;13.80;;;;;;;0.05;78.71;99932.45;106048;1254;74303;-75
2023/01/29 11:55:24;;;;;;;18.90;12.50;;;;;;;-0.02;78.74;99930.45;105977;1254;70965;-75